Time;durP1;ratioP1;P1;durP2;ratioP2;P2;SDS_P1;SDS_P2;PMS_P1;PMS_P2;Temp;Humidity;BMP_temperature;BMP_pressure;BME280_temperature;BME280_humidity;BME280_pressure;Samples;Min_cycle;Max_cycle;Signal;HPM_P1;HPM_P2
2022/08/18 00:02:05;;;;;;;23.50;16.02;;;19.10;99.90;;;;;;5073113;28;20013;-76
2022/08/18 00:04:32;;;;;;;23.40;14.98;;;19.10;99.90;;;;;;5072606;28;20039;-76
2022/08/18 00:06:57;;;;;;;21.75;14.98;;;19.10;99.90;;;;;;5069186;28;20020;-76
2022/08/18 00:09:23;;;;;;;24.65;15.45;;;19.10;99.90;;;;;;5071519;28;20043;-76
2022/08/18 00:11:49;;;;;;;21.77;14.75;;;19.10;99.90;;;;;;5071720;28;20029;-76
2022/08/18 00:14:17;;;;;;;24.77;14.82;;;19.10;99.90;;;;;;5072592;28;20039;-76
2022/08/18 00:16:43;;;;;;;20.48;12.93;;;19.20;99.90;;;;;;5065982;28;20476;-76
2022/08/18 00:19:09;;;;;;;21.42;13.90;;;19.10;99.90;;;;;;5072074;28;20029;-77
2022/08/18 00:21:34;;;;;;;21.42;13.55;;;19.10;99.90;;;;;;5054871;28;20107;-76
2022/08/18 00:24:00;;;;;;;20.30;13.63;;;19.10;99.90;;;;;;5054128;28;20033;-77
2022/08/18 00:26:26;;;;;;;22.52;12.98;;;19.10;99.90;;;;;;5072226;28;20031;-76
2022/08/18 00:28:52;;;;;;;19.20;13.02;;;19.10;99.90;;;;;;5067778;28;20533;-76
2022/08/18 00:31:17;;;;;;;22.85;12.73;;;19.10;99.90;;;;;;5072938;28;20100;-76
2022/08/18 00:33:43;;;;;;;19.05;12.85;;;19.20;99.90;;;;;;5060238;28;20032;-77
2022/08/18 00:36:10;;;;;;;19.23;12.10;;;19.10;99.90;;;;;;5062714;28;20099;-77
2022/08/18 00:38:37;;;;;;;21.95;12.57;;;19.10;99.90;;;;;;5044125;28;20554;-76
2022/08/18 00:41:03;;;;;;;18.67;12.07;;;19.10;99.90;;;;;;5069606;28;20146;-76
2022/08/18 00:43:41;;;;;;;17.45;11.55;;;19.10;99.90;;;;;;5042380;28;20115;-76
2022/08/18 00:46:12;;;;;;;17.92;11.48;;;19.10;99.90;;;;;;5063415;28;20103;-76
2022/08/18 00:48:37;;;;;;;20.85;11.85;;;19.10;99.90;;;;;;5060126;28;20024;-76
2022/08/18 00:51:10;;;;;;;19.95;10.88;;;19.10;99.90;;;;;;5071729;28;20020;-76
2022/08/18 00:53:44;;;;;;;14.60;11.30;;;19.10;99.90;;;;;;5049115;28;20507;-76
2022/08/18 00:56:15;;;;;;;18.80;10.80;;;19.10;99.90;;;;;;5062364;28;20013;-76
2022/08/18 00:59:07;;;;;;;20.27;10.55;;;19.10;99.90;;;;;;5054039;28;20025;-77
2022/08/18 01:01:34;;;;;;;21.23;10.30;;;19.10;99.90;;;;;;5065600;28;20031;-76
2022/08/18 01:04:08;;;;;;;16.65;9.82;;;19.00;99.90;;;;;;5071307;28;20127;-76
2022/08/18 01:06:50;;;;;;;13.20;9.98;;;19.00;99.90;;;;;;5069914;28;20021;-76
2022/08/18 01:09:16;;;;;;;17.95;10.77;;;19.00;99.90;;;;;;5067550;28;20073;-76
2022/08/18 01:11:43;;;;;;;14.05;10.18;;;19.00;99.90;;;;;;5070059;28;20023;-76
2022/08/18 01:14:14;;;;;;;17.48;10.38;;;19.00;99.90;;;;;;5063219;28;20388;-76
2022/08/18 01:22:34;;;;;;;;;;;18.90;99.90;;;;;;5071001;28;20035;-77
2022/08/18 01:27:45;;;;;;;19.05;10.43;;;18.90;99.90;;;;;;5055008;28;20075;-76
2022/08/18 01:30:16;;;;;;;16.73;10.60;;;18.90;99.90;;;;;;5051326;28;20538;-76
2022/08/18 01:32:44;;;;;;;14.38;9.82;;;18.90;99.90;;;;;;5052645;28;20032;-76
2022/08/18 01:35:12;;;;;;;18.92;10.00;;;18.80;99.90;;;;;;5065143;28;20130;-77
2022/08/18 01:37:38;;;;;;;18.40;10.88;;;18.80;99.90;;;;;;5056086;28;20047;-77
2022/08/18 01:40:06;;;;;;;17.75;10.55;;;18.80;99.90;;;;;;5070972;28;20476;-77
2022/08/18 01:42:33;;;;;;;17.13;10.18;;;18.80;99.90;;;;;;5054017;28;20036;-76
2022/08/18 01:44:58;;;;;;;18.67;9.95;;;18.80;99.90;;;;;;5070129;28;20029;-76
2022/08/18 01:47:24;;;;;;;17.08;9.88;;;18.70;99.90;;;;;;5063972;28;20020;-76
2022/08/18 01:49:52;;;;;;;15.32;10.05;;;18.70;99.90;;;;;;5058008;28;20535;-76
2022/08/18 01:52:20;;;;;;;15.18;10.32;;;18.70;99.90;;;;;;5070756;28;20021;-76
2022/08/18 01:54:47;;;;;;;17.48;10.02;;;18.70;99.90;;;;;;5057086;28;20414;-77
2022/08/18 01:57:14;;;;;;;16.38;10.43;;;18.60;99.90;;;;;;5068913;28;20016;-76
2022/08/18 01:59:43;;;;;;;14.20;10.00;;;18.60;99.90;;;;;;5057022;28;20020;-76
2022/08/18 02:02:14;;;;;;;13.82;9.65;;;18.60;99.90;;;;;;5068401;28;20128;-76
2022/08/18 02:04:40;;;;;;;13.50;10.10;;;18.60;99.90;;;;;;5070808;28;20111;-77
2022/08/18 02:07:09;;;;;;;18.77;11.50;;;18.60;99.90;;;;;;5062048;28;20021;-77
2022/08/18 02:09:36;;;;;;;15.43;12.18;;;18.50;99.90;;;;;;5063962;28;20095;-76
2022/08/18 02:12:02;;;;;;;20.88;14.55;;;18.50;99.90;;;;;;5063179;28;20070;-76
2022/08/18 02:14:28;;;;;;;26.52;14.40;;;18.50;99.90;;;;;;5064819;28;20044;-76
2022/08/18 02:16:57;;;;;;;20.60;13.75;;;18.50;99.90;;;;;;5070666;28;20024;-76
2022/08/18 02:19:23;;;;;;;21.10;14.55;;;18.50;99.90;;;;;;5063137;28;20412;-76
2022/08/18 02:21:51;;;;;;;18.55;13.50;;;18.50;99.90;;;;;;5066272;28;20037;-77
2022/08/18 02:24:17;;;;;;;16.80;13.75;;;18.50;99.90;;;;;;5063761;28;20354;-77
2022/08/18 02:26:43;;;;;;;22.33;13.88;;;18.50;99.90;;;;;;5063460;28;20021;-76
2022/08/18 02:29:09;;;;;;;19.33;13.07;;;18.50;99.90;;;;;;5070978;28;20034;-77
2022/08/18 02:31:35;;;;;;;19.77;13.20;;;18.50;99.90;;;;;;5061016;28;20064;-76
2022/08/18 02:34:00;;;;;;;21.52;14.23;;;18.50;99.90;;;;;;5056257;28;20033;-76
2022/08/18 02:36:27;;;;;;;20.00;14.10;;;18.50;99.90;;;;;;5070192;28;20117;-76
2022/08/18 02:38:53;;;;;;;21.33;14.13;;;18.50;99.90;;;;;;5060233;28;20388;-76
2022/08/18 02:41:19;;;;;;;18.63;12.75;;;18.40;99.90;;;;;;5063982;28;20023;-76
2022/08/18 02:43:47;;;;;;;18.90;12.65;;;18.40;99.90;;;;;;5063760;28;20403;-76
2022/08/18 02:46:13;;;;;;;18.55;13.23;;;18.40;99.90;;;;;;5060661;28;20012;-76
2022/08/18 02:48:39;;;;;;;18.85;13.05;;;18.40;99.90;;;;;;5070546;28;20411;-77
2022/08/18 02:51:07;;;;;;;19.33;13.23;;;18.30;99.90;;;;;;5070241;28;20017;-76
2022/08/18 02:53:34;;;;;;;18.42;13.77;;;18.40;99.90;;;;;;5062404;28;20469;-77
2022/08/18 02:58:56;;;;;;;21.27;13.65;;;18.30;99.90;;;;;;5061790;28;20027;-76
2022/08/18 03:01:24;;;;;;;18.00;14.48;;;18.30;99.90;;;;;;5045729;28;20120;-77
2022/08/18 03:03:51;;;;;;;19.00;13.75;;;18.30;99.90;;;;;;5069929;28;20103;-77
2022/08/18 03:06:18;;;;;;;21.27;14.70;;;18.30;99.90;;;;;;5063353;28;20017;-76
2022/08/18 03:08:47;;;;;;;18.10;14.73;;;18.20;99.90;;;;;;5067852;28;20039;-76
2022/08/18 03:11:18;;;;;;;18.85;14.40;;;18.30;99.90;;;;;;5056114;28;20017;-76
2022/08/18 03:13:45;;;;;;;18.83;14.00;;;18.30;99.90;;;;;;5062512;28;20033;-76
2022/08/18 03:16:11;;;;;;;20.45;14.23;;;18.30;99.90;;;;;;5051628;28;20539;-76
2022/08/18 03:18:37;;;;;;;16.98;14.40;;;18.30;99.90;;;;;;5069984;28;20107;-76
2022/08/18 03:21:13;;;;;;;21.20;14.25;;;18.30;99.90;;;;;;5070066;28;20080;-76
2022/08/18 03:23:40;;;;;;;21.17;15.13;;;18.30;99.90;;;;;;5054887;28;20528;-77
2022/08/18 03:26:10;;;;;;;18.85;13.63;;;18.40;99.90;;;;;;5052821;28;20428;-77
2022/08/18 03:28:37;;;;;;;24.42;15.18;;;18.40;99.90;;;;;;5069856;28;20024;-77
2022/08/18 03:31:03;;;;;;;19.38;14.18;;;18.40;99.90;;;;;;5072457;28;20403;-76
2022/08/18 03:33:29;;;;;;;17.65;14.48;;;18.50;99.90;;;;;;5074241;28;20075;-77
2022/08/18 03:35:55;;;;;;;17.38;14.10;;;18.40;99.90;;;;;;5074704;28;20048;-76
2022/08/18 03:38:20;;;;;;;20.52;13.93;;;18.50;99.90;;;;;;5074222;28;20052;-77
2022/08/18 03:40:50;;;;;;;16.65;13.07;;;18.50;99.90;;;;;;5073813;28;20033;-77
2022/08/18 03:43:16;;;;;;;20.73;13.55;;;18.50;99.90;;;;;;5073685;28;20045;-77
2022/08/18 03:45:42;;;;;;;21.15;14.13;;;18.50;99.90;;;;;;5072445;28;20078;-76
2022/08/18 03:48:09;;;;;;;17.83;13.20;;;18.50;99.90;;;;;;5068559;28;20017;-76
2022/08/18 03:50:35;;;;;;;17.40;14.02;;;18.50;99.90;;;;;;5065360;28;20025;-76
2022/08/18 03:53:00;;;;;;;15.35;13.75;;;18.50;99.90;;;;;;5049805;28;20428;-76
2022/08/18 03:55:28;;;;;;;16.42;13.68;;;18.50;99.90;;;;;;5037712;28;20029;-77
2022/08/18 03:57:57;;;;;;;20.88;14.05;;;18.50;99.90;;;;;;5056254;28;20098;-77
2022/08/18 04:00:25;;;;;;;18.08;14.80;;;18.50;99.90;;;;;;5063508;28;20021;-76
2022/08/18 04:02:51;;;;;;;21.85;15.63;;;18.50;99.90;;;;;;5067146;28;20039;-76
2022/08/18 04:05:16;;;;;;;19.25;15.02;;;18.60;99.90;;;;;;5063332;28;20017;-76
2022/08/18 04:07:42;;;;;;;20.55;16.25;;;18.60;99.90;;;;;;5055075;28;20055;-76
2022/08/18 04:10:08;;;;;;;20.88;15.07;;;18.60;99.90;;;;;;5072740;28;20052;-76
2022/08/18 04:12:35;;;;;;;20.25;15.68;;;18.60;99.90;;;;;;5065797;28;20476;-77
2022/08/18 04:15:02;;;;;;;18.20;14.60;;;18.60;99.90;;;;;;5072622;28;20425;-76
2022/08/18 04:17:27;;;;;;;19.15;14.77;;;18.70;99.90;;;;;;5069422;28;20047;-76
2022/08/18 04:19:55;;;;;;;16.90;14.27;;;18.70;99.90;;;;;;5073257;28;20048;-77
2022/08/18 04:22:21;;;;;;;18.88;14.48;;;18.70;99.90;;;;;;5072501;28;20016;-76
2022/08/18 04:24:48;;;;;;;19.52;14.20;;;18.70;99.90;;;;;;5072524;28;20036;-76
2022/08/18 04:27:14;;;;;;;19.42;15.18;;;18.70;99.90;;;;;;5069813;28;20028;-76
2022/08/18 04:29:40;;;;;;;19.73;15.38;;;18.70;99.90;;;;;;5066926;28;20056;-77
2022/08/18 04:32:06;;;;;;;20.08;15.15;;;18.70;99.90;;;;;;5054558;28;20102;-77
2022/08/18 04:34:33;;;;;;;21.52;15.90;;;18.70;99.90;;;;;;5059484;28;20028;-76
2022/08/18 04:36:59;;;;;;;21.63;16.02;;;18.70;99.90;;;;;;5072910;28;20346;-77
2022/08/18 04:39:24;;;;;;;21.92;16.92;;;18.70;99.90;;;;;;5055274;28;20048;-76
2022/08/18 04:41:50;;;;;;;18.15;15.57;;;18.60;99.90;;;;;;5061958;28;20417;-76
2022/08/18 04:44:17;;;;;;;23.13;16.30;;;18.60;99.90;;;;;;5066548;28;20025;-76
2022/08/18 04:46:48;;;;;;;19.40;16.63;;;18.60;99.90;;;;;;5061574;28;20033;-77
2022/08/18 04:49:15;;;;;;;20.58;16.65;;;18.60;99.90;;;;;;5059003;28;20031;-76
2022/08/18 04:53:43;;;;;;;20.00;17.35;;;18.60;99.90;;;;;;5061069;28;20380;-76
2022/08/18 04:54:37;;;;;;;18.83;16.27;;;18.60;99.90;;;;;;5069355;28;20040;-76
2022/08/18 04:57:17;;;;;;;19.52;16.15;;;18.50;99.90;;;;;;5063950;28;20098;-76
2022/08/18 04:59:45;;;;;;;23.98;15.77;;;18.50;99.90;;;;;;5072520;28;20103;-77
2022/08/18 05:02:13;;;;;;;19.85;15.50;;;18.50;99.90;;;;;;5061567;28;20385;-76
2022/08/18 05:04:40;;;;;;;18.17;15.57;;;18.50;99.90;;;;;;5065740;28;20032;-76
2022/08/18 05:07:09;;;;;;;19.55;14.57;;;18.50;99.90;;;;;;5068035;28;20447;-76
2022/08/18 05:09:35;;;;;;;17.90;14.75;;;18.50;99.90;;;;;;5070356;28;20078;-76
2022/08/18 05:12:02;;;;;;;20.35;15.60;;;18.40;99.90;;;;;;5060967;28;20484;-76
2022/08/18 05:14:28;;;;;;;20.48;15.18;;;18.40;99.90;;;;;;5072538;28;20040;-77
2022/08/18 05:16:58;;;;;;;18.98;15.20;;;18.40;99.90;;;;;;5072665;28;20027;-76
2022/08/18 05:19:25;;;;;;;18.20;14.95;;;18.40;99.90;;;;;;5073425;28;20077;-76
2022/08/18 05:21:52;;;;;;;19.35;14.95;;;18.30;99.90;;;;;;5072556;28;20013;-76
2022/08/18 05:24:20;;;;;;;18.77;15.68;;;18.30;99.90;;;;;;5071385;28;20028;-76
2022/08/18 05:26:47;;;;;;;18.17;15.23;;;18.40;99.90;;;;;;5058369;28;20065;-76
2022/08/18 05:29:13;;;;;;;17.85;15.93;;;18.40;99.90;;;;;;5065730;28;20017;-76
2022/08/18 05:31:39;;;;;;;20.27;15.27;;;18.30;99.90;;;;;;5062603;28;20032;-77
2022/08/18 05:34:04;;;;;;;22.60;15.23;;;18.30;99.90;;;;;;5057575;28;20016;-76
2022/08/18 05:36:49;;;;;;;18.55;15.35;;;18.40;99.90;;;;;;5071529;28;20444;-76
2022/08/18 05:39:18;;;;;;;20.23;16.02;;;18.40;99.90;;;;;;5066963;28;20500;-76
2022/08/18 05:41:45;;;;;;;21.67;15.95;;;18.40;99.90;;;;;;5056820;28;20025;-77
2022/08/18 05:44:18;;;;;;;21.20;16.30;;;18.40;99.90;;;;;;5067301;28;20048;-76
2022/08/18 05:46:47;;;;;;;23.95;17.58;;;18.40;99.90;;;;;;5053609;28;20453;-76
2022/08/18 05:49:14;;;;;;;22.25;16.52;;;18.50;99.90;;;;;;5069089;28;20024;-75
2022/08/18 05:51:44;;;;;;;17.70;15.45;;;18.50;99.90;;;;;;5058496;28;20008;-76
2022/08/18 05:57:01;;;;;;;19.25;14.98;;;18.50;99.90;;;;;;5071254;28;20035;-76
2022/08/18 05:59:33;;;;;;;17.85;15.32;;;18.60;99.90;;;;;;5070984;28;20027;-76
2022/08/18 06:02:03;;;;;;;19.25;14.50;;;18.60;99.90;;;;;;5055032;28;20044;-76
2022/08/18 06:04:44;;;;;;;25.35;16.20;;;18.60;99.90;;;;;;5053334;28;20032;-76
2022/08/18 06:07:15;;;;;;;19.55;14.60;;;18.70;99.90;;;;;;5068222;28;20118;-77
2022/08/18 06:09:53;;;;;;;20.55;15.48;;;18.70;99.90;;;;;;5067731;28;20447;-76
2022/08/18 06:12:26;;;;;;;20.92;15.90;;;18.80;99.90;;;;;;5060017;28;20041;-76
2022/08/18 06:15:19;;;;;;;25.15;16.73;;;18.90;99.90;;;;;;5067344;28;20231;-76
2022/08/18 06:17:47;;;;;;;21.90;15.85;;;18.90;99.90;;;;;;5063289;28;20063;-76
2022/08/18 06:20:18;;;;;;;19.77;15.23;;;19.00;99.90;;;;;;5038379;28;20044;-76
2022/08/18 06:23:16;;;;;;;20.77;14.57;;;19.00;99.90;;;;;;5058442;28;20024;-77
2022/08/18 06:26:05;;;;;;;26.58;16.17;;;19.10;99.90;;;;;;5068895;28;20032;-76
2022/08/18 06:28:52;;;;;;;17.27;13.80;;;19.10;99.90;;;;;;5042754;28;20116;-76
2022/08/18 06:31:39;;;;;;;18.02;14.82;;;19.10;99.90;;;;;;5057383;28;20020;-76
2022/08/18 06:34:26;;;;;;;19.85;14.77;;;19.20;99.90;;;;;;5064239;28;20025;-76
2022/08/18 06:36:59;;;;;;;26.50;15.32;;;19.20;99.90;;;;;;5066626;28;20116;-76
2022/08/18 06:39:38;;;;;;;25.10;15.68;;;19.20;99.90;;;;;;5070752;28;20105;-75
2022/08/18 06:42:04;;;;;;;20.92;12.98;;;19.30;99.90;;;;;;5057537;28;20060;-76
2022/08/18 06:44:53;;;;;;;16.85;12.90;;;19.40;99.90;;;;;;5050816;28;20043;-76
2022/08/18 06:47:47;;;;;;;17.63;13.63;;;19.40;99.90;;;;;;5070373;28;20043;-76
2022/08/18 06:50:24;;;;;;;15.93;12.30;;;19.50;99.90;;;;;;5070236;28;20163;-76
2022/08/18 06:52:59;;;;;;;17.55;12.25;;;19.50;99.90;;;;;;5067001;28;20108;-76
2022/08/18 06:55:41;;;;;;;17.08;11.65;;;19.70;99.90;;;;;;5061361;28;20028;-76
2022/08/18 06:58:12;;;;;;;18.30;12.68;;;19.70;99.90;;;;;;5059104;28;20032;-76
2022/08/18 07:00:45;;;;;;;14.30;10.77;;;19.80;99.90;;;;;;5070434;28;20048;-76
2022/08/18 07:03:13;;;;;;;15.63;10.55;;;19.90;99.90;;;;;;5073627;28;20465;-75
2022/08/18 07:05:57;;;;;;;13.63;10.00;;;20.00;99.90;;;;;;5062520;28;20106;-76
2022/08/18 07:08:41;;;;;;;12.38;9.55;;;20.10;99.90;;;;;;5056176;28;20436;-76
2022/08/18 07:11:22;;;;;;;13.30;9.35;;;20.20;99.90;;;;;;5073760;28;20021;-76
2022/08/18 07:13:56;;;;;;;12.02;9.40;;;20.20;99.90;;;;;;5060851;28;20447;-76
2022/08/18 07:16:24;;;;;;;9.98;7.78;;;20.30;99.90;;;;;;5067701;28;20029;-76
2022/08/18 07:18:50;;;;;;;13.07;7.55;;;20.30;99.90;;;;;;5068303;28;20025;-76
2022/08/18 07:21:29;;;;;;;9.50;7.35;;;20.40;99.90;;;;;;5069381;28;20031;-76
2022/08/18 07:24:08;;;;;;;10.48;6.25;;;20.40;99.90;;;;;;5073983;28;20028;-75
2022/08/18 07:27:00;;;;;;;8.75;6.65;;;20.50;99.90;;;;;;5073505;28;20028;-76
2022/08/18 07:29:26;;;;;;;10.45;6.78;;;20.60;99.90;;;;;;5069147;28;20025;-76
2022/08/18 07:31:55;;;;;;;9.38;5.75;;;20.70;99.90;;;;;;5074033;28;20380;-76
2022/08/18 07:34:36;;;;;;;9.32;6.20;;;20.80;99.90;;;;;;5063035;28;20024;-76
2022/08/18 07:37:33;;;;;;;9.38;6.15;;;20.90;99.90;;;;;;5059655;28;20028;-76
2022/08/18 07:40:24;;;;;;;10.77;5.88;;;21.00;99.90;;;;;;5066842;28;20048;-77
2022/08/18 07:43:04;;;;;;;6.00;5.40;;;21.20;99.90;;;;;;5073085;28;20013;-77
2022/08/18 07:45:35;;;;;;;6.38;5.35;;;21.30;99.90;;;;;;5071378;28;20384;-76
2022/08/18 07:48:20;;;;;;;6.32;4.40;;;21.30;99.90;;;;;;5059762;28;20558;-76
2022/08/18 07:50:46;;;;;;;4.97;3.90;;;21.30;99.90;;;;;;5067339;28;20082;-77
2022/08/18 07:53:37;;;;;;;6.38;4.00;;;21.30;99.90;;;;;;5061660;28;20025;-76
2022/08/18 07:56:33;;;;;;;4.15;3.75;;;21.30;99.90;;;;;;5059361;28;20021;-77
2022/08/18 07:59:27;;;;;;;5.97;3.47;;;21.40;99.90;;;;;;5042555;28;20048;-77
2022/08/18 08:02:17;;;;;;;7.72;3.90;;;21.30;99.90;;;;;;5069323;28;20097;-76
2022/08/18 08:05:22;;;;;;;10.38;3.90;;;21.30;99.90;;;;;;5059014;28;20028;-76
2022/08/18 08:07:56;;;;;;;7.10;4.15;;;21.40;99.90;;;;;;5058900;28;20025;-76
2022/08/18 08:10:35;;;;;;;5.50;4.47;;;21.40;99.90;;;;;;5072929;28;20020;-76
2022/08/18 08:13:32;;;;;;;6.15;4.25;;;21.50;99.90;;;;;;5063208;28;20043;-77
2022/08/18 08:16:43;;;;;;;6.85;4.07;;;21.50;99.90;;;;;;5046863;28;20016;-76
2022/08/18 08:19:45;;;;;;;7.78;3.80;;;21.60;99.90;;;;;;5033551;28;20044;-76
2022/08/18 08:22:18;;;;;;;5.15;3.90;;;21.60;99.90;;;;;;5053321;28;20025;-76
2022/08/18 08:25:02;;;;;;;6.82;3.67;;;21.70;99.90;;;;;;5062327;28;20059;-76
2022/08/18 08:27:42;;;;;;;4.65;3.55;;;21.80;99.90;;;;;;5057872;28;20484;-76
2022/08/18 08:30:11;;;;;;;3.95;3.13;;;21.80;99.90;;;;;;5059435;28;20025;-76
2022/08/18 08:33:05;;;;;;;3.80;3.40;;;21.80;99.90;;;;;;5071846;28;20063;-76
2022/08/18 08:36:11;;;;;;;5.30;3.65;;;21.90;99.90;;;;;;5066850;28;20098;-77
2022/08/18 08:38:48;;;;;;;4.25;2.85;;;22.00;99.90;;;;;;5030092;28;20113;-76
2022/08/18 08:41:44;;;;;;;4.10;3.00;;;22.10;99.90;;;;;;5066532;28;20380;-77
2022/08/18 08:44:21;;;;;;;6.88;3.05;;;22.00;99.90;;;;;;5068303;28;20023;-76
2022/08/18 08:46:51;;;;;;;3.88;2.80;;;22.00;99.90;;;;;;5072779;28;20097;-76
2022/08/18 08:49:37;;;;;;;4.00;2.50;;;22.10;99.90;;;;;;5064030;28;20024;-76
2022/08/18 08:52:10;;;;;;;4.22;2.70;;;22.20;99.90;;;;;;5063439;28;20480;-76
2022/08/18 08:55:14;;;;;;;3.42;2.55;;;22.40;99.90;;;;;;5072267;28;20020;-76
2022/08/18 08:57:50;;;;;;;6.85;2.88;;;22.70;99.90;;;;;;5069621;28;20025;-76
2022/08/18 09:00:16;;;;;;;2.90;2.17;;;22.90;99.90;;;;;;5057240;28;20477;-76
2022/08/18 09:02:45;;;;;;;3.95;1.90;;;23.10;99.90;;;;;;5072072;28;20345;-76
2022/08/18 09:05:18;;;;;;;3.05;2.00;;;23.20;99.90;;;;;;5064681;28;20052;-76
2022/08/18 09:07:57;;;;;;;6.30;1.70;;;23.30;99.90;;;;;;5066263;28;20020;-76
2022/08/18 09:10:44;;;;;;;3.78;1.50;;;23.30;99.90;;;;;;5064554;28;20431;-76
2022/08/18 09:13:19;;;;;;;2.15;1.80;;;23.30;99.90;;;;;;5068708;28;20017;-76
2022/08/18 09:16:21;;;;;;;3.30;1.85;;;23.40;99.90;;;;;;5061833;28;20024;-76
2022/08/18 09:19:12;;;;;;;1.75;1.45;;;23.40;99.90;;;;;;5066086;28;20471;-77
2022/08/18 09:21:47;;;;;;;3.08;1.73;;;23.50;99.90;;;;;;5064666;28;20454;-76
2022/08/18 09:24:21;;;;;;;2.78;1.52;;;23.50;99.90;;;;;;5069664;28;20012;-76
2022/08/18 09:26:50;;;;;;;5.55;2.00;;;23.60;99.90;;;;;;5069427;28;20044;-77
2022/08/18 09:29:23;;;;;;;4.00;2.00;;;23.80;99.90;;;;;;5062632;28;20314;-76
2022/08/18 09:32:27;;;;;;;4.53;1.80;;;23.90;99.90;;;;;;5064148;28;20051;-76
2022/08/18 09:35:19;;;;;;;3.17;1.75;;;24.10;99.90;;;;;;5057673;28;20397;-76
2022/08/18 09:41:30;;;;;;;6.47;1.92;;;24.20;99.90;;;;;;5051608;28;20506;-77
2022/08/18 09:44:08;;;;;;;4.30;2.40;;;24.30;99.90;;;;;;4989682;28;20035;-77
2022/08/18 09:46:43;;;;;;;3.70;1.85;;;24.40;99.90;;;;;;4989624;28;20054;-76
2022/08/18 09:49:45;;;;;;;3.53;1.77;;;24.50;99.90;;;;;;4989038;28;20043;-76
2022/08/18 09:52:20;;;;;;;4.78;1.85;;;24.60;99.90;;;;;;4989153;28;20068;-76
2022/08/18 09:54:57;;;;;;;4.93;2.00;;;24.70;99.90;;;;;;4989147;28;20414;-77
2022/08/18 09:57:25;;;;;;;6.30;2.08;;;24.90;99.90;;;;;;4989632;28;20030;-76
2022/08/18 09:59:58;;;;;;;4.40;1.73;;;24.90;99.90;;;;;;4973345;28;20015;-76
2022/08/18 10:02:30;;;;;;;5.28;2.17;;;25.00;99.90;;;;;;4981554;28;20030;-76
2022/08/18 10:05:14;;;;;;;4.90;1.90;;;25.00;99.90;;;;;;4988467;28;20026;-76
2022/08/18 10:07:47;;;;;;;6.40;2.28;;;25.00;99.90;;;;;;4982856;28;20041;-76
2022/08/18 10:10:18;;;;;;;5.43;2.00;;;25.20;99.90;;;;;;4989375;28;20529;-77
2022/08/18 10:13:02;;;;;;;4.97;2.00;;;25.30;99.90;;;;;;4972726;28;20022;-75
2022/08/18 10:15:49;;;;;;;4.32;1.85;;;25.50;99.90;;;;;;5057704;28;20537;-76
2022/08/18 10:18:28;;;;;;;5.15;2.15;;;25.50;99.90;;;;;;5070647;28;20461;-76
2022/08/18 10:21:16;;;;;;;5.13;2.25;;;25.50;99.90;;;;;;5057566;28;20021;-76
2022/08/18 10:23:44;;;;;;;3.08;1.90;;;25.60;99.90;;;;;;5066441;28;20016;-76
2022/08/18 10:26:28;;;;;;;4.30;1.90;;;25.50;99.90;;;;;;5070393;28;20013;-77
2022/08/18 10:28:57;;;;;;;3.08;2.00;;;25.40;99.90;;;;;;5070367;28;20028;-77
2022/08/18 10:31:23;;;;;;;4.97;1.90;;;25.30;99.90;;;;;;5061852;28;20028;-76
2022/08/18 10:34:00;;;;;;;5.63;1.90;;;25.30;99.90;;;;;;5065615;28;20036;-77
2022/08/18 10:36:36;;;;;;;6.13;2.20;;;25.40;99.90;;;;;;5064937;28;20082;-76
2022/08/18 10:39:06;;;;;;;3.70;1.70;;;25.50;99.90;;;;;;5068624;28;20567;-76
2022/08/18 10:41:33;;;;;;;5.20;2.13;;;25.50;99.90;;;;;;5070791;28;20045;-77
2022/08/18 10:44:01;;;;;;;3.40;2.00;;;25.60;99.90;;;;;;5057655;28;20183;-76
2022/08/18 10:46:31;;;;;;;8.20;2.17;;;25.80;99.90;;;;;;5061296;28;20385;-76
2022/08/18 10:49:01;;;;;;;6.30;2.30;;;26.00;99.90;;;;;;5054127;28;20040;-77
2022/08/18 10:52:00;;;;;;;10.40;2.47;;;26.10;99.90;;;;;;5044128;28;20021;-77
2022/08/18 10:54:39;;;;;;;4.72;2.10;;;26.30;99.90;;;;;;5040156;28;20041;-77
2022/08/18 10:57:15;;;;;;;5.65;2.00;;;26.30;99.90;;;;;;5056113;28;20036;-76
2022/08/18 10:59:57;;;;;;;6.90;2.08;;;26.30;99.90;;;;;;5076706;28;20103;-76
2022/08/18 11:02:46;;;;;;;6.47;2.10;;;26.30;99.90;;;;;;5065195;28;20435;-78
2022/08/18 11:05:16;;;;;;;9.25;2.60;;;26.30;99.90;;;;;;5060629;28;20048;-77
2022/08/18 11:07:47;;;;;;;6.43;2.50;;;26.10;99.90;;;;;;5077634;28;20028;-76
2022/08/18 11:10:17;;;;;;;5.03;2.05;;;26.00;99.90;;;;;;5075989;28;20501;-76
2022/08/18 11:13:20;;;;;;;5.88;2.25;;;25.90;99.90;;;;;;5077253;28;20031;-76
2022/08/18 11:16:14;;;;;;;5.05;2.13;;;25.80;99.90;;;;;;5066869;28;20032;-76
2022/08/18 11:18:44;;;;;;;5.95;2.65;;;25.70;99.90;;;;;;5040512;28;20056;-77
2022/08/18 11:21:34;;;;;;;5.82;2.45;;;25.70;99.90;;;;;;5058122;28;20078;-76
2022/08/18 11:24:08;;;;;;;3.90;1.95;;;25.80;99.90;;;;;;5065951;28;20384;-77
2022/08/18 11:26:39;;;;;;;4.63;1.88;;;25.90;99.90;;;;;;5052035;28;20474;-76
2022/08/18 11:29:38;;;;;;;6.68;2.38;;;25.90;99.90;;;;;;5059656;28;20106;-77
2022/08/18 11:32:21;;;;;;;5.72;1.92;;;26.10;99.90;;;;;;5056264;28;20095;-78
2022/08/18 11:35:24;;;;;;;4.82;1.98;;;26.30;99.90;;;;;;5059352;28;20060;-77
2022/08/18 11:37:55;;;;;;;5.70;2.05;;;26.30;99.90;;;;;;5052805;28;20083;-77
2022/08/18 11:40:40;;;;;;;3.40;2.10;;;26.30;99.90;;;;;;5059304;28;20068;-77
2022/08/18 11:43:09;;;;;;;5.47;2.15;;;26.40;99.90;;;;;;5053845;28;20092;-77
2022/08/18 11:45:46;;;;;;;4.70;2.15;;;26.60;99.90;;;;;;5063136;28;20059;-76
2022/08/18 11:48:27;;;;;;;5.43;2.22;;;26.70;99.90;;;;;;5055724;28;20017;-76
2022/08/18 11:50:55;;;;;;;5.70;2.00;;;26.90;99.90;;;;;;5073514;28;20036;-77
2022/08/18 11:53:46;;;;;;;4.88;1.95;;;27.10;99.90;;;;;;5078268;28;20472;-76
2022/08/18 11:56:28;;;;;;;4.22;2.25;;;27.20;99.80;;;;;;5071134;28;20058;-77
2022/08/18 11:59:02;;;;;;;7.45;2.58;;;27.10;99.90;;;;;;5070254;28;20081;-77
2022/08/18 12:01:48;;;;;;;3.87;2.00;;;27.00;99.90;;;;;;5067045;28;20016;-77
2022/08/18 12:04:14;;;;;;;4.22;2.20;;;27.00;99.80;;;;;;5060919;28;20325;-77
2022/08/18 12:06:55;;;;;;;4.75;2.17;;;27.00;99.50;;;;;;5065505;28;20016;-77
2022/08/18 12:09:29;;;;;;;3.05;2.15;;;27.20;99.10;;;;;;5076123;28;20357;-76
2022/08/18 12:11:59;;;;;;;4.30;2.60;;;27.30;98.80;;;;;;5040404;28;20036;-77
2022/08/18 12:14:28;;;;;;;3.10;1.90;;;27.50;98.70;;;;;;5063458;28;20056;-77
2022/08/18 12:16:54;;;;;;;5.05;2.25;;;27.60;97.30;;;;;;5073944;28;20025;-76
2022/08/18 12:19:21;;;;;;;5.75;2.20;;;27.70;96.90;;;;;;5078580;28;20012;-77
2022/08/18 12:21:55;;;;;;;4.60;2.20;;;27.70;95.70;;;;;;5077962;28;20380;-76
2022/08/18 12:24:23;;;;;;;4.95;2.40;;;27.70;96.10;;;;;;5078268;28;20036;-77
2022/08/18 12:26:49;;;;;;;3.10;1.90;;;27.80;96.30;;;;;;5065013;28;20037;-77
2022/08/18 12:29:19;;;;;;;3.38;2.10;;;27.90;95.70;;;;;;5072069;28;20029;-77
2022/08/18 12:31:46;;;;;;;6.18;2.30;;;27.80;95.50;;;;;;5052195;28;20476;-75
2022/08/18 12:34:12;;;;;;;5.43;2.42;;;27.80;95.80;;;;;;5064254;28;20029;-77
2022/08/18 12:36:38;;;;;;;5.18;2.55;;;27.70;95.60;;;;;;5073105;28;20088;-78
2022/08/18 12:39:05;;;;;;;5.00;2.40;;;27.60;95.10;;;;;;5075826;28;20061;-77
2022/08/18 12:41:31;;;;;;;4.53;2.30;;;27.40;94.60;;;;;;5062349;28;20074;-76
2022/08/18 12:43:56;;;;;;;4.30;2.17;;;27.20;94.50;;;;;;5073484;28;20099;-76
2022/08/18 12:46:23;;;;;;;3.22;2.00;;;27.10;94.50;;;;;;5071733;28;20024;-75
2022/08/18 12:48:49;;;;;;;3.90;2.38;;;27.10;94.70;;;;;;5064762;28;20430;-76
2022/08/18 12:51:15;;;;;;;3.67;2.00;;;27.20;94.90;;;;;;5041077;28;20074;-77
2022/08/18 12:53:40;;;;;;;5.10;2.58;;;27.30;95.00;;;;;;5068948;28;20288;-77
2022/08/18 12:56:20;;;;;;;4.82;2.28;;;27.30;93.90;;;;;;5058373;28;20087;-77
2022/08/18 12:58:46;;;;;;;2.42;2.00;;;27.40;93.90;;;;;;5053126;28;20100;-77
2022/08/18 13:01:12;;;;;;;3.65;2.20;;;27.60;94.00;;;;;;5065727;28;20019;-76
2022/08/18 13:03:38;;;;;;;3.65;2.10;;;27.70;93.30;;;;;;5060429;28;20029;-76
2022/08/18 13:06:03;;;;;;;3.10;2.30;;;27.80;92.90;;;;;;5059258;28;20013;-76
2022/08/18 13:08:29;;;;;;;5.15;2.47;;;27.80;92.60;;;;;;5066327;28;20079;-76
2022/08/18 13:10:55;;;;;;;4.78;2.47;;;27.80;92.80;;;;;;5057241;28;20049;-76
2022/08/18 13:13:20;;;;;;;5.63;2.67;;;27.90;93.00;;;;;;5066092;28;20023;-77
2022/08/18 13:15:47;;;;;;;6.22;2.38;;;28.00;92.00;;;;;;5065835;28;20048;-77
2022/08/18 13:18:13;;;;;;;4.30;2.42;;;28.00;92.00;;;;;;5071864;28;20028;-76
2022/08/18 13:20:40;;;;;;;2.97;2.22;;;28.10;91.90;;;;;;5067667;28;20021;-76
2022/08/18 13:23:06;;;;;;;6.10;2.45;;;28.40;92.10;;;;;;5062649;28;20375;-76
2022/08/18 13:25:31;;;;;;;2.20;2.00;;;28.80;91.80;;;;;;5068979;28;20021;-76